KHHR METAR and TAF | Updated Today

KHHR METAR

Jack Northrop Field Hawthorne Municipal Airport

Observation time: 20 min. ago

KHHR 080553Z 00000KT 10SM CLR 14/12 A3002 RMK AO2 RAB20E29 SLP165 P0000 60000 T01440117 10178 20144 53013

Need help? Read our tutorial on how to read METARs or read the parsed version below.

Jack Northrop Field Hawthorne Municipal Airport (KHHR) METAR

  • Weather conditions on Wed, 08 Dec 2021 05:53:00 +0000 (20 min. ago):
  • Present conditions: Dry
  • Clouds: Clear skies
  • Visibility: 16093 meters
  • Wind: Calm
  • Temperature: 14 celsius
  • Dew point: 12 celsius
  • Pressure: 30.02 inHg
  • Remarks: AO2 RAB20E29 SLP165 P0000 60000 T01440117 10178 20144 53013


Useful to know...

KHHR TAF

Jack Northrop Field Hawthorne Municipal Airport

TAF not found.

Airports near KHHR

KAVX Weather
Region: Avalon

Catalina Airport

Not found in our database
KBUR Weather
IATA: BUR
Region: Burbank

Bob Hope Airport

Found in our database
KCCB Weather
Region: Upland

Cable Airport

Not found in our database
KCNO Weather
Region: Chino

Chino Airport

Not found in our database
KEMT Weather
Region: El Monte

San Gabriel Valley Airport

Not found in our database
KFUL Weather
Region: Fullerton

Fullerton Municipal Airport

Not found in our database